sensor_id;sensor_type;location;lat;lon;timestamp;P1;durP1;ratioP1;P2;durP2;ratioP2
79066;SDS011;68470;50.224;14.348;2024-03-02T00:01:40;103.60;;;42.13;;
79066;SDS011;68470;50.224;14.348;2024-03-02T00:04:05;93.00;;;41.40;;
79066;SDS011;68470;50.224;14.348;2024-03-02T00:06:33;76.22;;;33.08;;
79066;SDS011;68470;50.224;14.348;2024-03-02T00:08:58;83.32;;;34.95;;
79066;SDS011;68470;50.224;14.348;2024-03-02T00:11:24;79.80;;;34.83;;
79066;SDS011;68470;50.224;14.348;2024-03-02T00:13:52;79.20;;;32.75;;
79066;SDS011;68470;50.224;14.348;2024-03-02T00:16:18;80.35;;;35.47;;
79066;SDS011;68470;50.224;14.348;2024-03-02T00:18:43;170.48;;;67.03;;
79066;SDS011;68470;50.224;14.348;2024-03-02T00:21:09;93.30;;;39.85;;
79066;SDS011;68470;50.224;14.348;2024-03-02T00:23:35;82.13;;;34.53;;
79066;SDS011;68470;50.224;14.348;2024-03-02T00:26:01;88.95;;;38.20;;
79066;SDS011;68470;50.224;14.348;2024-03-02T00:28:27;92.38;;;38.45;;
79066;SDS011;68470;50.224;14.348;2024-03-02T00:31:01;88.82;;;39.28;;
79066;SDS011;68470;50.224;14.348;2024-03-02T00:33:31;83.07;;;34.72;;
79066;SDS011;68470;50.224;14.348;2024-03-02T00:35:57;86.00;;;36.13;;
79066;SDS011;68470;50.224;14.348;2024-03-02T00:38:22;85.45;;;35.72;;
79066;SDS011;68470;50.224;14.348;2024-03-02T00:40:48;77.60;;;35.10;;
79066;SDS011;68470;50.224;14.348;2024-03-02T00:45:59;72.25;;;31.23;;
79066;SDS011;68470;50.224;14.348;2024-03-02T00:48:25;67.72;;;29.73;;
79066;SDS011;68470;50.224;14.348;2024-03-02T00:50:52;73.22;;;31.13;;
79066;SDS011;68470;50.224;14.348;2024-03-02T00:53:17;74.57;;;34.00;;
79066;SDS011;68470;50.224;14.348;2024-03-02T00:55:45;75.75;;;33.45;;
79066;SDS011;68470;50.224;14.348;2024-03-02T00:58:12;91.43;;;39.25;;
79066;SDS011;68470;50.224;14.348;2024-03-02T01:00:38;106.40;;;45.15;;
79066;SDS011;68470;50.224;14.348;2024-03-02T01:03:03;94.63;;;40.38;;
79066;SDS011;68470;50.224;14.348;2024-03-02T01:05:29;91.05;;;41.63;;
79066;SDS011;68470;50.224;14.348;2024-03-02T01:07:55;88.40;;;38.20;;
79066;SDS011;68470;50.224;14.348;2024-03-02T01:10:20;74.65;;;33.58;;
79066;SDS011;68470;50.224;14.348;2024-03-02T01:12:45;72.90;;;33.20;;
79066;SDS011;68470;50.224;14.348;2024-03-02T01:15:11;76.25;;;33.75;;
79066;SDS011;68470;50.224;14.348;2024-03-02T01:17:36;91.65;;;41.55;;
79066;SDS011;68470;50.224;14.348;2024-03-02T01:20:02;92.05;;;38.63;;
79066;SDS011;68470;50.224;14.348;2024-03-02T01:22:28;82.20;;;34.88;;
79066;SDS011;68470;50.224;14.348;2024-03-02T01:24:53;79.65;;;36.50;;
79066;SDS011;68470;50.224;14.348;2024-03-02T01:27:19;96.78;;;40.85;;
79066;SDS011;68470;50.224;14.348;2024-03-02T01:29:45;96.05;;;42.17;;
79066;SDS011;68470;50.224;14.348;2024-03-02T01:32:10;98.32;;;42.45;;
79066;SDS011;68470;50.224;14.348;2024-03-02T01:34:36;90.65;;;39.50;;
79066;SDS011;68470;50.224;14.348;2024-03-02T01:37:01;87.65;;;36.83;;
79066;SDS011;68470;50.224;14.348;2024-03-02T01:39:27;79.45;;;37.25;;
79066;SDS011;68470;50.224;14.348;2024-03-02T01:41:52;76.35;;;35.17;;
79066;SDS011;68470;50.224;14.348;2024-03-02T01:44:18;117.68;;;49.95;;
79066;SDS011;68470;50.224;14.348;2024-03-02T01:46:43;125.10;;;53.20;;
79066;SDS011;68470;50.224;14.348;2024-03-02T01:49:09;76.63;;;31.50;;
79066;SDS011;68470;50.224;14.348;2024-03-02T01:51:34;77.88;;;32.35;;
79066;SDS011;68470;50.224;14.348;2024-03-02T01:54:00;77.82;;;35.47;;
79066;SDS011;68470;50.224;14.348;2024-03-02T01:56:25;89.65;;;41.30;;
79066;SDS011;68470;50.224;14.348;2024-03-02T01:58:51;73.13;;;32.00;;
79066;SDS011;68470;50.224;14.348;2024-03-02T02:01:16;71.70;;;31.05;;
79066;SDS011;68470;50.224;14.348;2024-03-02T02:03:43;58.95;;;27.40;;
79066;SDS011;68470;50.224;14.348;2024-03-02T02:06:09;61.35;;;29.33;;
79066;SDS011;68470;50.224;14.348;2024-03-02T02:08:36;74.20;;;32.67;;
79066;SDS011;68470;50.224;14.348;2024-03-02T02:11:02;72.57;;;32.47;;
79066;SDS011;68470;50.224;14.348;2024-03-02T02:13:27;69.30;;;30.83;;
79066;SDS011;68470;50.224;14.348;2024-03-02T02:15:53;74.97;;;32.42;;
79066;SDS011;68470;50.224;14.348;2024-03-02T02:18:18;59.60;;;28.85;;
79066;SDS011;68470;50.224;14.348;2024-03-02T02:20:44;71.03;;;31.95;;
79066;SDS011;68470;50.224;14.348;2024-03-02T02:23:09;70.40;;;31.45;;
79066;SDS011;68470;50.224;14.348;2024-03-02T02:25:35;72.07;;;32.92;;
79066;SDS011;68470;50.224;14.348;2024-03-02T02:28:01;75.03;;;31.48;;
79066;SDS011;68470;50.224;14.348;2024-03-02T02:30:28;78.75;;;32.15;;
79066;SDS011;68470;50.224;14.348;2024-03-02T02:32:54;73.35;;;32.22;;
79066;SDS011;68470;50.224;14.348;2024-03-02T02:35:19;73.63;;;32.03;;
79066;SDS011;68470;50.224;14.348;2024-03-02T02:37:45;83.75;;;36.92;;
79066;SDS011;68470;50.224;14.348;2024-03-02T02:40:11;78.45;;;35.33;;
79066;SDS011;68470;50.224;14.348;2024-03-02T02:42:38;72.47;;;31.60;;
79066;SDS011;68470;50.224;14.348;2024-03-02T02:45:04;69.82;;;32.92;;
79066;SDS011;68470;50.224;14.348;2024-03-02T02:47:29;65.70;;;28.98;;
79066;SDS011;68470;50.224;14.348;2024-03-02T02:49:55;71.22;;;32.72;;
79066;SDS011;68470;50.224;14.348;2024-03-02T02:52:21;65.47;;;29.35;;
79066;SDS011;68470;50.224;14.348;2024-03-02T02:54:46;72.65;;;32.88;;
79066;SDS011;68470;50.224;14.348;2024-03-02T02:57:12;58.53;;;27.98;;
79066;SDS011;68470;50.224;14.348;2024-03-02T02:59:37;67.38;;;29.50;;
79066;SDS011;68470;50.224;14.348;2024-03-02T03:02:03;71.97;;;32.35;;
79066;SDS011;68470;50.224;14.348;2024-03-02T03:04:29;79.05;;;32.97;;
79066;SDS011;68470;50.224;14.348;2024-03-02T03:06:54;80.97;;;35.75;;
79066;SDS011;68470;50.224;14.348;2024-03-02T03:09:20;77.60;;;33.35;;
79066;SDS011;68470;50.224;14.348;2024-03-02T03:11:46;77.28;;;34.53;;
79066;SDS011;68470;50.224;14.348;2024-03-02T03:14:11;78.82;;;33.95;;
79066;SDS011;68470;50.224;14.348;2024-03-02T03:16:37;82.63;;;37.08;;
79066;SDS011;68470;50.224;14.348;2024-03-02T03:19:02;91.80;;;38.45;;
79066;SDS011;68470;50.224;14.348;2024-03-02T03:21:28;73.82;;;34.42;;
79066;SDS011;68470;50.224;14.348;2024-03-02T03:23:53;78.85;;;33.65;;
79066;SDS011;68470;50.224;14.348;2024-03-02T03:26:20;70.13;;;31.50;;
79066;SDS011;68470;50.224;14.348;2024-03-02T03:28:46;73.88;;;33.03;;
79066;SDS011;68470;50.224;14.348;2024-03-02T03:31:11;69.97;;;31.60;;
79066;SDS011;68470;50.224;14.348;2024-03-02T03:33:37;78.78;;;34.30;;
79066;SDS011;68470;50.224;14.348;2024-03-02T03:36:03;79.20;;;34.28;;
79066;SDS011;68470;50.224;14.348;2024-03-02T03:38:28;84.18;;;35.22;;
79066;SDS011;68470;50.224;14.348;2024-03-02T03:40:54;87.68;;;37.97;;
79066;SDS011;68470;50.224;14.348;2024-03-02T03:43:20;73.07;;;32.28;;
79066;SDS011;68470;50.224;14.348;2024-03-02T03:45:45;78.05;;;33.10;;
79066;SDS011;68470;50.224;14.348;2024-03-02T03:48:11;72.45;;;32.58;;
79066;SDS011;68470;50.224;14.348;2024-03-02T03:50:37;79.35;;;35.03;;
79066;SDS011;68470;50.224;14.348;2024-03-02T03:53:03;71.97;;;33.88;;
79066;SDS011;68470;50.224;14.348;2024-03-02T03:55:29;118.35;;;56.55;;
79066;SDS011;68470;50.224;14.348;2024-03-02T03:57:54;82.13;;;37.58;;
79066;SDS011;68470;50.224;14.348;2024-03-02T04:00:20;88.30;;;38.38;;
79066;SDS011;68470;50.224;14.348;2024-03-02T04:02:45;96.05;;;43.28;;
79066;SDS011;68470;50.224;14.348;2024-03-02T04:05:11;89.80;;;37.53;;
79066;SDS011;68470;50.224;14.348;2024-03-02T04:07:36;89.40;;;36.85;;
79066;SDS011;68470;50.224;14.348;2024-03-02T04:10:06;86.82;;;36.60;;
79066;SDS011;68470;50.224;14.348;2024-03-02T04:12:33;82.15;;;36.78;;
79066;SDS011;68470;50.224;14.348;2024-03-02T04:14:59;87.18;;;36.35;;
79066;SDS011;68470;50.224;14.348;2024-03-02T04:17:24;79.43;;;36.95;;
79066;SDS011;68470;50.224;14.348;2024-03-02T04:19:49;85.57;;;40.60;;
79066;SDS011;68470;50.224;14.348;2024-03-02T04:22:15;94.60;;;41.70;;
79066;SDS011;68470;50.224;14.348;2024-03-02T04:24:40;93.28;;;39.10;;
79066;SDS011;68470;50.224;14.348;2024-03-02T04:27:06;74.13;;;31.27;;
79066;SDS011;68470;50.224;14.348;2024-03-02T04:29:31;82.45;;;35.35;;
79066;SDS011;68470;50.224;14.348;2024-03-02T04:31:57;96.28;;;42.30;;
79066;SDS011;68470;50.224;14.348;2024-03-02T04:34:22;103.70;;;44.05;;
79066;SDS011;68470;50.224;14.348;2024-03-02T04:36:48;159.15;;;67.72;;
79066;SDS011;68470;50.224;14.348;2024-03-02T04:39:13;82.55;;;38.20;;
79066;SDS011;68470;50.224;14.348;2024-03-02T04:41:39;135.98;;;61.80;;
79066;SDS011;68470;50.224;14.348;2024-03-02T04:44:04;81.40;;;34.63;;
79066;SDS011;68470;50.224;14.348;2024-03-02T04:46:31;192.65;;;80.85;;
79066;SDS011;68470;50.224;14.348;2024-03-02T04:48:56;119.90;;;51.17;;
79066;SDS011;68470;50.224;14.348;2024-03-02T04:51:22;84.25;;;36.10;;
79066;SDS011;68470;50.224;14.348;2024-03-02T04:53:48;71.65;;;35.35;;
79066;SDS011;68470;50.224;14.348;2024-03-02T04:56:13;68.03;;;33.17;;
79066;SDS011;68470;50.224;14.348;2024-03-02T04:59:05;77.97;;;36.45;;
79066;SDS011;68470;50.224;14.348;2024-03-02T05:01:31;85.65;;;36.05;;
79066;SDS011;68470;50.224;14.348;2024-03-02T05:03:57;72.15;;;30.95;;
79066;SDS011;68470;50.224;14.348;2024-03-02T05:06:23;86.65;;;37.67;;
79066;SDS011;68470;50.224;14.348;2024-03-02T05:08:49;145.15;;;67.05;;
79066;SDS011;68470;50.224;14.348;2024-03-02T05:11:14;81.80;;;37.78;;
79066;SDS011;68470;50.224;14.348;2024-03-02T05:13:58;77.35;;;32.83;;
79066;SDS011;68470;50.224;14.348;2024-03-02T05:16:24;74.85;;;30.08;;
79066;SDS011;68470;50.224;14.348;2024-03-02T05:18:49;80.03;;;32.42;;
79066;SDS011;68470;50.224;14.348;2024-03-02T05:21:15;122.90;;;51.40;;
79066;SDS011;68470;50.224;14.348;2024-03-02T05:23:40;84.60;;;38.35;;
79066;SDS011;68470;50.224;14.348;2024-03-02T05:26:06;89.80;;;36.88;;
79066;SDS011;68470;50.224;14.348;2024-03-02T05:28:31;77.20;;;32.42;;
79066;SDS011;68470;50.224;14.348;2024-03-02T05:30:57;163.43;;;69.07;;
79066;SDS011;68470;50.224;14.348;2024-03-02T05:33:22;115.00;;;50.90;;
79066;SDS011;68470;50.224;14.348;2024-03-02T05:35:48;110.75;;;46.03;;
79066;SDS011;68470;50.224;14.348;2024-03-02T05:38:15;125.53;;;53.53;;
79066;SDS011;68470;50.224;14.348;2024-03-02T05:40:40;207.05;;;81.32;;
79066;SDS011;68470;50.224;14.348;2024-03-02T05:43:06;217.55;;;85.40;;
79066;SDS011;68470;50.224;14.348;2024-03-02T05:45:31;212.27;;;80.72;;
79066;SDS011;68470;50.224;14.348;2024-03-02T05:47:57;107.40;;;43.08;;
79066;SDS011;68470;50.224;14.348;2024-03-02T05:50:23;80.15;;;31.63;;
79066;SDS011;68470;50.224;14.348;2024-03-02T05:52:49;65.13;;;28.10;;
79066;SDS011;68470;50.224;14.348;2024-03-02T05:55:15;69.97;;;26.60;;
79066;SDS011;68470;50.224;14.348;2024-03-02T05:57:41;122.63;;;46.05;;
79066;SDS011;68470;50.224;14.348;2024-03-02T06:02:34;60.27;;;21.90;;
79066;SDS011;68470;50.224;14.348;2024-03-02T06:05:03;209.63;;;68.97;;
79066;SDS011;68470;50.224;14.348;2024-03-02T06:07:29;105.55;;;40.35;;
79066;SDS011;68470;50.224;14.348;2024-03-02T06:09:55;71.60;;;30.35;;
79066;SDS011;68470;50.224;14.348;2024-03-02T06:12:20;62.03;;;27.80;;
79066;SDS011;68470;50.224;14.348;2024-03-02T06:14:46;125.80;;;52.97;;
79066;SDS011;68470;50.224;14.348;2024-03-02T06:17:11;84.65;;;38.83;;
79066;SDS011;68470;50.224;14.348;2024-03-02T06:19:37;62.17;;;28.35;;
79066;SDS011;68470;50.224;14.348;2024-03-02T06:22:02;63.88;;;34.13;;
79066;SDS011;68470;50.224;14.348;2024-03-02T06:24:28;59.53;;;31.13;;
79066;SDS011;68470;50.224;14.348;2024-03-02T06:26:53;53.25;;;26.77;;
79066;SDS011;68470;50.224;14.348;2024-03-02T06:29:19;46.70;;;25.70;;
79066;SDS011;68470;50.224;14.348;2024-03-02T06:31:44;44.00;;;19.30;;
79066;SDS011;68470;50.224;14.348;2024-03-02T06:34:10;50.58;;;23.20;;
79066;SDS011;68470;50.224;14.348;2024-03-02T06:36:35;45.58;;;22.25;;
79066;SDS011;68470;50.224;14.348;2024-03-02T06:39:01;49.20;;;21.17;;
79066;SDS011;68470;50.224;14.348;2024-03-02T06:41:27;44.08;;;19.33;;
79066;SDS011;68470;50.224;14.348;2024-03-02T06:43:52;45.25;;;20.00;;
79066;SDS011;68470;50.224;14.348;2024-03-02T06:46:24;42.08;;;19.88;;
79066;SDS011;68470;50.224;14.348;2024-03-02T06:48:51;41.35;;;19.52;;
79066;SDS011;68470;50.224;14.348;2024-03-02T06:51:16;45.60;;;18.17;;
79066;SDS011;68470;50.224;14.348;2024-03-02T06:53:43;43.45;;;19.63;;
79066;SDS011;68470;50.224;14.348;2024-03-02T06:56:08;42.08;;;21.40;;
79066;SDS011;68470;50.224;14.348;2024-03-02T06:58:34;38.45;;;18.98;;
79066;SDS011;68470;50.224;14.348;2024-03-02T07:01:00;38.72;;;20.10;;
79066;SDS011;68470;50.224;14.348;2024-03-02T07:03:28;43.63;;;21.27;;
79066;SDS011;68470;50.224;14.348;2024-03-02T07:05:54;38.35;;;19.00;;
79066;SDS011;68470;50.224;14.348;2024-03-02T07:08:19;39.35;;;19.83;;
79066;SDS011;68470;50.224;14.348;2024-03-02T07:10:45;36.50;;;18.25;;
79066;SDS011;68470;50.224;14.348;2024-03-02T07:13:11;39.55;;;18.90;;
79066;SDS011;68470;50.224;14.348;2024-03-02T07:15:36;38.05;;;17.95;;
79066;SDS011;68470;50.224;14.348;2024-03-02T07:18:31;40.55;;;18.30;;
79066;SDS011;68470;50.224;14.348;2024-03-02T07:20:57;45.45;;;22.60;;
79066;SDS011;68470;50.224;14.348;2024-03-02T07:23:26;35.72;;;18.38;;
79066;SDS011;68470;50.224;14.348;2024-03-02T07:25:55;38.22;;;17.63;;
79066;SDS011;68470;50.224;14.348;2024-03-02T07:28:28;35.47;;;17.77;;
79066;SDS011;68470;50.224;14.348;2024-03-02T07:30:59;35.75;;;18.10;;
79066;SDS011;68470;50.224;14.348;2024-03-02T07:33:26;33.42;;;17.98;;
79066;SDS011;68470;50.224;14.348;2024-03-02T07:35:51;31.98;;;16.38;;
79066;SDS011;68470;50.224;14.348;2024-03-02T07:38:17;33.90;;;19.05;;
79066;SDS011;68470;50.224;14.348;2024-03-02T07:40:43;35.95;;;18.90;;
79066;SDS011;68470;50.224;14.348;2024-03-02T07:43:09;38.58;;;18.50;;
79066;SDS011;68470;50.224;14.348;2024-03-02T07:45:34;38.95;;;18.40;;
79066;SDS011;68470;50.224;14.348;2024-03-02T07:48:01;38.50;;;19.15;;
79066;SDS011;68470;50.224;14.348;2024-03-02T07:50:29;41.20;;;18.75;;
79066;SDS011;68470;50.224;14.348;2024-03-02T07:52:55;36.75;;;18.10;;
79066;SDS011;68470;50.224;14.348;2024-03-02T07:55:21;54.20;;;23.27;;
79066;SDS011;68470;50.224;14.348;2024-03-02T07:57:46;64.78;;;28.00;;
79066;SDS011;68470;50.224;14.348;2024-03-02T08:00:12;52.50;;;25.27;;
79066;SDS011;68470;50.224;14.348;2024-03-02T08:02:38;50.20;;;23.20;;
79066;SDS011;68470;50.224;14.348;2024-03-02T08:05:03;87.78;;;37.55;;
79066;SDS011;68470;50.224;14.348;2024-03-02T08:07:29;35.65;;;17.65;;
79066;SDS011;68470;50.224;14.348;2024-03-02T08:09:54;30.88;;;15.23;;
79066;SDS011;68470;50.224;14.348;2024-03-02T08:12:20;51.38;;;24.30;;
79066;SDS011;68470;50.224;14.348;2024-03-02T08:14:48;39.50;;;20.85;;
79066;SDS011;68470;50.224;14.348;2024-03-02T08:17:14;37.42;;;18.08;;
79066;SDS011;68470;50.224;14.348;2024-03-02T08:19:39;26.55;;;14.77;;
79066;SDS011;68470;50.224;14.348;2024-03-02T08:22:05;26.55;;;15.85;;
79066;SDS011;68470;50.224;14.348;2024-03-02T08:24:31;30.85;;;13.23;;
79066;SDS011;68470;50.224;14.348;2024-03-02T08:26:57;25.50;;;12.13;;
79066;SDS011;68470;50.224;14.348;2024-03-02T08:29:23;25.55;;;13.02;;
79066;SDS011;68470;50.224;14.348;2024-03-02T08:31:49;23.33;;;11.13;;
79066;SDS011;68470;50.224;14.348;2024-03-02T08:34:15;25.48;;;13.07;;
79066;SDS011;68470;50.224;14.348;2024-03-02T08:36:40;25.17;;;11.77;;
79066;SDS011;68470;50.224;14.348;2024-03-02T08:39:06;20.48;;;10.23;;
79066;SDS011;68470;50.224;14.348;2024-03-02T08:41:41;23.10;;;12.68;;
79066;SDS011;68470;50.224;14.348;2024-03-02T08:44:08;25.85;;;12.38;;
79066;SDS011;68470;50.224;14.348;2024-03-02T08:46:34;29.55;;;14.60;;
79066;SDS011;68470;50.224;14.348;2024-03-02T08:48:59;21.85;;;11.20;;
79066;SDS011;68470;50.224;14.348;2024-03-02T08:51:25;28.45;;;14.50;;
79066;SDS011;68470;50.224;14.348;2024-03-02T08:53:50;34.03;;;16.38;;
79066;SDS011;68470;50.224;14.348;2024-03-02T08:56:16;27.67;;;13.57;;
79066;SDS011;68470;50.224;14.348;2024-03-02T08:58:42;28.67;;;14.52;;
79066;SDS011;68470;50.224;14.348;2024-03-02T09:01:08;30.42;;;15.32;;
79066;SDS011;68470;50.224;14.348;2024-03-02T09:03:34;35.53;;;17.80;;
79066;SDS011;68470;50.224;14.348;2024-03-02T09:06:00;27.20;;;13.65;;
79066;SDS011;68470;50.224;14.348;2024-03-02T09:08:25;33.13;;;17.35;;
79066;SDS011;68470;50.224;14.348;2024-03-02T09:10:51;30.50;;;13.45;;
79066;SDS011;68470;50.224;14.348;2024-03-02T09:13:17;30.83;;;14.07;;
79066;SDS011;68470;50.224;14.348;2024-03-02T09:15:42;27.85;;;11.75;;
79066;SDS011;68470;50.224;14.348;2024-03-02T09:18:09;28.75;;;13.85;;
79066;SDS011;68470;50.224;14.348;2024-03-02T09:20:35;28.77;;;12.38;;
79066;SDS011;68470;50.224;14.348;2024-03-02T09:23:00;25.27;;;12.30;;
79066;SDS011;68470;50.224;14.348;2024-03-02T09:25:26;23.60;;;12.10;;
79066;SDS011;68470;50.224;14.348;2024-03-02T09:27:51;23.55;;;11.73;;
79066;SDS011;68470;50.224;14.348;2024-03-02T09:30:17;32.38;;;14.75;;
79066;SDS011;68470;50.224;14.348;2024-03-02T09:32:42;29.17;;;14.18;;
79066;SDS011;68470;50.224;14.348;2024-03-02T09:35:08;20.00;;;10.27;;
79066;SDS011;68470;50.224;14.348;2024-03-02T09:37:34;28.55;;;13.43;;
79066;SDS011;68470;50.224;14.348;2024-03-02T09:40:00;25.00;;;11.65;;
79066;SDS011;68470;50.224;14.348;2024-03-02T09:42:25;26.27;;;13.45;;
79066;SDS011;68470;50.224;14.348;2024-03-02T09:44:52;23.75;;;11.65;;
79066;SDS011;68470;50.224;14.348;2024-03-02T09:47:17;27.48;;;12.27;;
79066;SDS011;68470;50.224;14.348;2024-03-02T09:49:43;23.92;;;11.25;;
79066;SDS011;68470;50.224;14.348;2024-03-02T09:52:09;38.08;;;18.30;;
79066;SDS011;68470;50.224;14.348;2024-03-02T09:54:35;27.83;;;12.23;;
79066;SDS011;68470;50.224;14.348;2024-03-02T09:57:01;67.25;;;32.65;;
79066;SDS011;68470;50.224;14.348;2024-03-02T09:59:27;113.18;;;40.90;;
79066;SDS011;68470;50.224;14.348;2024-03-02T10:01:57;22.70;;;10.82;;
79066;SDS011;68470;50.224;14.348;2024-03-02T10:04:26;22.88;;;11.18;;
79066;SDS011;68470;50.224;14.348;2024-03-02T10:07:08;37.72;;;17.48;;
79066;SDS011;68470;50.224;14.348;2024-03-02T10:09:34;19.13;;;9.63;;
79066;SDS011;68470;50.224;14.348;2024-03-02T10:12:06;20.05;;;9.98;;
79066;SDS011;68470;50.224;14.348;2024-03-02T10:14:32;25.98;;;12.00;;
79066;SDS011;68470;50.224;14.348;2024-03-02T10:17:04;41.70;;;18.92;;
79066;SDS011;68470;50.224;14.348;2024-03-02T10:19:30;156.20;;;69.57;;
79066;SDS011;68470;50.224;14.348;2024-03-02T10:22:00;37.10;;;17.80;;
79066;SDS011;68470;50.224;14.348;2024-03-02T10:24:26;27.90;;;12.48;;
79066;SDS011;68470;50.224;14.348;2024-03-02T10:26:52;47.13;;;20.25;;
79066;SDS011;68470;50.224;14.348;2024-03-02T10:29:18;72.25;;;27.83;;
79066;SDS011;68470;50.224;14.348;2024-03-02T10:31:44;18.25;;;8.85;;
79066;SDS011;68470;50.224;14.348;2024-03-02T10:34:11;23.80;;;10.65;;
79066;SDS011;68470;50.224;14.348;2024-03-02T10:36:37;22.52;;;10.63;;
79066;SDS011;68470;50.224;14.348;2024-03-02T10:39:03;55.53;;;27.35;;
79066;SDS011;68470;50.224;14.348;2024-03-02T10:41:29;22.10;;;9.90;;
79066;SDS011;68470;50.224;14.348;2024-03-02T10:43:57;20.08;;;10.10;;
79066;SDS011;68470;50.224;14.348;2024-03-02T10:46:29;36.70;;;20.20;;
79066;SDS011;68470;50.224;14.348;2024-03-02T10:48:55;40.58;;;17.77;;
79066;SDS011;68470;50.224;14.348;2024-03-02T10:51:20;23.55;;;12.32;;
79066;SDS011;68470;50.224;14.348;2024-03-02T10:53:46;24.35;;;10.93;;
79066;SDS011;68470;50.224;14.348;2024-03-02T10:56:12;25.58;;;11.73;;
79066;SDS011;68470;50.224;14.348;2024-03-02T10:58:39;21.35;;;11.52;;
79066;SDS011;68470;50.224;14.348;2024-03-02T11:01:05;16.70;;;9.23;;
79066;SDS011;68470;50.224;14.348;2024-03-02T11:03:32;16.45;;;8.85;;
79066;SDS011;68470;50.224;14.348;2024-03-02T11:05:59;22.17;;;12.48;;
79066;SDS011;68470;50.224;14.348;2024-03-02T11:08:25;19.60;;;9.57;;
79066;SDS011;68470;50.224;14.348;2024-03-02T11:10:52;17.95;;;7.95;;
79066;SDS011;68470;50.224;14.348;2024-03-02T11:13:24;16.60;;;7.90;;
79066;SDS011;68470;50.224;14.348;2024-03-02T11:15:55;19.95;;;9.45;;
79066;SDS011;68470;50.224;14.348;2024-03-02T11:18:24;19.50;;;8.07;;
79066;SDS011;68470;50.224;14.348;2024-03-02T11:20:50;16.88;;;8.80;;
79066;SDS011;68470;50.224;14.348;2024-03-02T11:23:16;17.55;;;9.02;;
79066;SDS011;68470;50.224;14.348;2024-03-02T11:25:41;18.10;;;9.10;;
79066;SDS011;68470;50.224;14.348;2024-03-02T11:28:07;19.35;;;10.35;;
79066;SDS011;68470;50.224;14.348;2024-03-02T11:33:03;15.75;;;8.63;;
79066;SDS011;68470;50.224;14.348;2024-03-02T11:35:33;16.55;;;8.65;;
79066;SDS011;68470;50.224;14.348;2024-03-02T11:37:59;19.30;;;10.27;;
79066;SDS011;68470;50.224;14.348;2024-03-02T11:40:24;18.17;;;9.20;;
79066;SDS011;68470;50.224;14.348;2024-03-02T11:42:50;18.38;;;8.60;;
79066;SDS011;68470;50.224;14.348;2024-03-02T11:45:24;15.45;;;9.23;;
79066;SDS011;68470;50.224;14.348;2024-03-02T11:50:15;15.23;;;10.07;;
79066;SDS011;68470;50.224;14.348;2024-03-02T11:52:41;16.23;;;8.32;;
79066;SDS011;68470;50.224;14.348;2024-03-02T11:55:07;18.67;;;8.35;;
79066;SDS011;68470;50.224;14.348;2024-03-02T11:57:35;15.15;;;8.20;;
79066;SDS011;68470;50.224;14.348;2024-03-02T12:00:00;15.60;;;8.50;;
79066;SDS011;68470;50.224;14.348;2024-03-02T12:02:29;17.13;;;9.05;;
79066;SDS011;68470;50.224;14.348;2024-03-02T12:04:54;16.55;;;8.90;;
79066;SDS011;68470;50.224;14.348;2024-03-02T12:07:21;17.38;;;8.43;;
79066;SDS011;68470;50.224;14.348;2024-03-02T12:09:48;18.75;;;9.02;;
79066;SDS011;68470;50.224;14.348;2024-03-02T12:12:13;14.50;;;7.97;;
79066;SDS011;68470;50.224;14.348;2024-03-02T12:14:49;20.05;;;10.10;;
79066;SDS011;68470;50.224;14.348;2024-03-02T12:17:15;19.08;;;9.68;;
79066;SDS011;68470;50.224;14.348;2024-03-02T12:19:40;19.08;;;8.85;;
79066;SDS011;68470;50.224;14.348;2024-03-02T12:22:06;17.00;;;9.85;;
79066;SDS011;68470;50.224;14.348;2024-03-02T12:24:32;17.63;;;8.73;;
79066;SDS011;68470;50.224;14.348;2024-03-02T12:26:57;17.25;;;8.38;;
79066;SDS011;68470;50.224;14.348;2024-03-02T12:29:23;15.68;;;8.20;;
79066;SDS011;68470;50.224;14.348;2024-03-02T12:31:50;17.20;;;10.07;;
79066;SDS011;68470;50.224;14.348;2024-03-02T12:34:17;15.20;;;9.07;;
79066;SDS011;68470;50.224;14.348;2024-03-02T12:36:43;18.65;;;10.20;;
79066;SDS011;68470;50.224;14.348;2024-03-02T12:41:38;15.93;;;8.07;;
79066;SDS011;68470;50.224;14.348;2024-03-02T12:44:03;17.42;;;8.98;;
79066;SDS011;68470;50.224;14.348;2024-03-02T12:46:30;15.50;;;8.80;;
79066;SDS011;68470;50.224;14.348;2024-03-02T12:48:55;16.90;;;9.23;;
79066;SDS011;68470;50.224;14.348;2024-03-02T12:51:21;15.85;;;9.35;;
79066;SDS011;68470;50.224;14.348;2024-03-02T12:53:52;18.63;;;9.35;;
79066;SDS011;68470;50.224;14.348;2024-03-02T12:56:18;16.80;;;9.98;;
79066;SDS011;68470;50.224;14.348;2024-03-02T12:58:44;18.17;;;9.25;;
79066;SDS011;68470;50.224;14.348;2024-03-02T13:01:09;17.25;;;9.13;;
79066;SDS011;68470;50.224;14.348;2024-03-02T13:03:36;17.48;;;9.02;;
79066;SDS011;68470;50.224;14.348;2024-03-02T13:06:03;17.08;;;9.48;;
79066;SDS011;68470;50.224;14.348;2024-03-02T13:08:28;17.92;;;9.82;;
79066;SDS011;68470;50.224;14.348;2024-03-02T13:10:54;20.60;;;10.20;;
79066;SDS011;68470;50.224;14.348;2024-03-02T13:13:19;16.33;;;9.13;;
79066;SDS011;68470;50.224;14.348;2024-03-02T13:15:45;18.85;;;8.98;;
79066;SDS011;68470;50.224;14.348;2024-03-02T13:18:10;16.27;;;9.40;;
79066;SDS011;68470;50.224;14.348;2024-03-02T13:20:36;18.95;;;10.20;;
79066;SDS011;68470;50.224;14.348;2024-03-02T13:23:02;18.63;;;9.98;;
79066;SDS011;68470;50.224;14.348;2024-03-02T13:25:28;19.10;;;11.05;;
79066;SDS011;68470;50.224;14.348;2024-03-02T13:27:53;18.20;;;9.45;;
79066;SDS011;68470;50.224;14.348;2024-03-02T13:30:19;18.05;;;9.38;;
79066;SDS011;68470;50.224;14.348;2024-03-02T13:32:44;20.33;;;9.85;;
79066;SDS011;68470;50.224;14.348;2024-03-02T13:35:10;21.05;;;10.43;;
79066;SDS011;68470;50.224;14.348;2024-03-02T13:37:36;19.52;;;10.50;;
79066;SDS011;68470;50.224;14.348;2024-03-02T13:40:02;17.83;;;10.10;;
79066;SDS011;68470;50.224;14.348;2024-03-02T13:42:29;14.30;;;8.27;;
79066;SDS011;68470;50.224;14.348;2024-03-02T13:44:55;15.43;;;9.20;;
79066;SDS011;68470;50.224;14.348;2024-03-02T13:47:20;17.15;;;9.18;;
79066;SDS011;68470;50.224;14.348;2024-03-02T13:49:46;18.85;;;10.43;;
79066;SDS011;68470;50.224;14.348;2024-03-02T13:52:14;13.38;;;7.82;;
79066;SDS011;68470;50.224;14.348;2024-03-02T13:54:40;17.55;;;8.75;;
79066;SDS011;68470;50.224;14.348;2024-03-02T13:57:06;14.73;;;8.73;;
79066;SDS011;68470;50.224;14.348;2024-03-02T13:59:33;17.60;;;9.10;;
79066;SDS011;68470;50.224;14.348;2024-03-02T14:01:58;10.82;;;6.57;;
79066;SDS011;68470;50.224;14.348;2024-03-02T14:04:24;13.52;;;7.15;;
79066;SDS011;68470;50.224;14.348;2024-03-02T14:06:50;15.90;;;9.02;;
79066;SDS011;68470;50.224;14.348;2024-03-02T14:09:16;18.17;;;10.13;;
79066;SDS011;68470;50.224;14.348;2024-03-02T14:11:41;15.15;;;7.55;;
79066;SDS011;68470;50.224;14.348;2024-03-02T14:14:07;18.27;;;9.80;;
79066;SDS011;68470;50.224;14.348;2024-03-02T14:16:32;14.05;;;7.45;;
79066;SDS011;68470;50.224;14.348;2024-03-02T14:18:58;15.32;;;8.13;;